Hewittsville, Illinois
Current Conditions -  °F | °C
As of 11:55 AM on Saturday 25 Oct 2014 (Local Time) from KTAZ Reporting Station
Clear Clear  
Wind Chill: 70°   Ceiling: Unl
Heat Index: 70°   Visibility: 10mi
Dew Point: 59°   Wind: 7mph
Humidity: 68%   Direction: 290°WNW
Pressure: 30.03"   Gusts: NA
Location:  39.5521°N, 89.3216°W
Report Text: KTAZ 251655Z AUTO 29006KT 10SM CLR 21/15 A3003 RMK AO2
Loading
Personal Weather Stations






























Interactive Weather Map
Tropical Storm Tracking
New forecast layout! Learn more

10-Day Weather Forecast

Advertisements
Track Severe Weather on mobile